sensor_id;sensor_type;location;lat;lon;timestamp;temperature;humidity
24686;DHT22;12804;51.176;4.452;2023-04-29T00:02:12;11.70;99.90
24686;DHT22;12804;51.176;4.452;2023-04-29T00:04:38;11.80;99.90
24686;DHT22;12804;51.176;4.452;2023-04-29T00:07:04;11.90;99.90
24686;DHT22;12804;51.176;4.452;2023-04-29T00:09:30;12.00;99.90
24686;DHT22;12804;51.176;4.452;2023-04-29T00:11:56;12.00;99.90
24686;DHT22;12804;51.176;4.452;2023-04-29T00:14:22;12.00;99.90
24686;DHT22;12804;51.176;4.452;2023-04-29T00:16:49;12.00;99.90
24686;DHT22;12804;51.176;4.452;2023-04-29T00:19:15;11.90;99.90
24686;DHT22;12804;51.176;4.452;2023-04-29T00:21:43;12.00;99.90
24686;DHT22;12804;51.176;4.452;2023-04-29T00:24:08;11.90;99.90
24686;DHT22;12804;51.176;4.452;2023-04-29T00:26:34;11.80;99.90
24686;DHT22;12804;51.176;4.452;2023-04-29T00:29:00;11.70;99.90
24686;DHT22;12804;51.176;4.452;2023-04-29T00:31:26;11.80;99.90
24686;DHT22;12804;51.176;4.452;2023-04-29T00:33:52;11.90;99.90
24686;DHT22;12804;51.176;4.452;2023-04-29T00:36:18;12.00;99.90
24686;DHT22;12804;51.176;4.452;2023-04-29T00:38:43;12.00;99.90
24686;DHT22;12804;51.176;4.452;2023-04-29T00:41:09;12.00;99.90
24686;DHT22;12804;51.176;4.452;2023-04-29T00:43:35;11.90;99.90
24686;DHT22;12804;51.176;4.452;2023-04-29T00:46:01;11.90;99.90
24686;DHT22;12804;51.176;4.452;2023-04-29T00:48:27;11.90;99.90
24686;DHT22;12804;51.176;4.452;2023-04-29T00:50:53;12.00;99.90
24686;DHT22;12804;51.176;4.452;2023-04-29T00:53:19;11.80;99.90
24686;DHT22;12804;51.176;4.452;2023-04-29T00:55:45;11.80;99.90
24686;DHT22;12804;51.176;4.452;2023-04-29T00:58:12;11.70;99.90
24686;DHT22;12804;51.176;4.452;2023-04-29T01:00:38;11.70;99.90
24686;DHT22;12804;51.176;4.452;2023-04-29T01:03:08;11.60;99.90
24686;DHT22;12804;51.176;4.452;2023-04-29T01:05:33;11.60;99.90
24686;DHT22;12804;51.176;4.452;2023-04-29T01:10:44;11.70;99.90
24686;DHT22;12804;51.176;4.452;2023-04-29T01:13:17;11.70;99.90
24686;DHT22;12804;51.176;4.452;2023-04-29T01:16:00;11.70;99.90
24686;DHT22;12804;51.176;4.452;2023-04-29T01:18:43;11.60;99.90
24686;DHT22;12804;51.176;4.452;2023-04-29T01:21:16;11.60;99.90
24686;DHT22;12804;51.176;4.452;2023-04-29T01:23:42;11.60;99.90
24686;DHT22;12804;51.176;4.452;2023-04-29T01:26:11;11.60;99.90
24686;DHT22;12804;51.176;4.452;2023-04-29T01:28:50;11.60;99.90
24686;DHT22;12804;51.176;4.452;2023-04-29T01:31:35;11.60;99.90
24686;DHT22;12804;51.176;4.452;2023-04-29T01:34:25;11.70;99.90
24686;DHT22;12804;51.176;4.452;2023-04-29T01:37:06;11.70;99.90
24686;DHT22;12804;51.176;4.452;2023-04-29T01:39:57;11.60;99.90
24686;DHT22;12804;51.176;4.452;2023-04-29T01:42:41;11.50;99.90
24686;DHT22;12804;51.176;4.452;2023-04-29T01:45:15;11.50;99.90
24686;DHT22;12804;51.176;4.452;2023-04-29T01:47:46;11.60;99.90
24686;DHT22;12804;51.176;4.452;2023-04-29T01:50:14;11.60;99.90
24686;DHT22;12804;51.176;4.452;2023-04-29T01:52:40;11.60;99.90
24686;DHT22;12804;51.176;4.452;2023-04-29T01:55:06;11.70;99.70
24686;DHT22;12804;51.176;4.452;2023-04-29T01:57:49;11.60;99.40
24686;DHT22;12804;51.176;4.452;2023-04-29T02:00:35;11.60;99.90
24686;DHT22;12804;51.176;4.452;2023-04-29T02:03:00;11.60;99.90
24686;DHT22;12804;51.176;4.452;2023-04-29T02:05:36;11.70;99.80
24686;DHT22;12804;51.176;4.452;2023-04-29T02:08:02;11.60;99.90
24686;DHT22;12804;51.176;4.452;2023-04-29T02:10:29;11.60;99.90
24686;DHT22;12804;51.176;4.452;2023-04-29T02:13:22;11.60;99.90
24686;DHT22;12804;51.176;4.452;2023-04-29T02:15:48;11.70;99.90
24686;DHT22;12804;51.176;4.452;2023-04-29T02:18:15;11.70;99.00
24686;DHT22;12804;51.176;4.452;2023-04-29T02:20:41;11.70;99.30
24686;DHT22;12804;51.176;4.452;2023-04-29T02:23:07;11.70;99.10
24686;DHT22;12804;51.176;4.452;2023-04-29T02:25:34;11.70;99.80
24686;DHT22;12804;51.176;4.452;2023-04-29T02:28:00;11.60;99.90
24686;DHT22;12804;51.176;4.452;2023-04-29T02:30:26;11.60;99.90
24686;DHT22;12804;51.176;4.452;2023-04-29T02:32:52;11.60;99.90
24686;DHT22;12804;51.176;4.452;2023-04-29T02:35:18;11.70;99.90
24686;DHT22;12804;51.176;4.452;2023-04-29T02:37:44;11.70;99.70
24686;DHT22;12804;51.176;4.452;2023-04-29T02:40:10;11.60;99.90
24686;DHT22;12804;51.176;4.452;2023-04-29T02:42:37;11.50;99.90
24686;DHT22;12804;51.176;4.452;2023-04-29T02:45:03;11.50;99.90
24686;DHT22;12804;51.176;4.452;2023-04-29T02:47:29;11.50;99.90
24686;DHT22;12804;51.176;4.452;2023-04-29T02:49:55;11.50;99.90
24686;DHT22;12804;51.176;4.452;2023-04-29T02:52:20;11.50;99.90
24686;DHT22;12804;51.176;4.452;2023-04-29T02:54:47;11.50;99.90
24686;DHT22;12804;51.176;4.452;2023-04-29T02:57:13;11.50;99.90
24686;DHT22;12804;51.176;4.452;2023-04-29T02:59:38;11.50;99.90
24686;DHT22;12804;51.176;4.452;2023-04-29T03:02:04;11.40;99.90
24686;DHT22;12804;51.176;4.452;2023-04-29T03:04:30;11.50;99.90
24686;DHT22;12804;51.176;4.452;2023-04-29T03:06:56;11.40;99.90
24686;DHT22;12804;51.176;4.452;2023-04-29T03:09:24;11.40;99.90
24686;DHT22;12804;51.176;4.452;2023-04-29T03:11:51;11.40;99.90
24686;DHT22;12804;51.176;4.452;2023-04-29T03:14:18;11.50;99.90
24686;DHT22;12804;51.176;4.452;2023-04-29T03:16:46;11.50;99.90
24686;DHT22;12804;51.176;4.452;2023-04-29T03:19:12;11.60;99.90
24686;DHT22;12804;51.176;4.452;2023-04-29T03:21:38;11.60;99.90
24686;DHT22;12804;51.176;4.452;2023-04-29T03:24:05;11.60;99.90
24686;DHT22;12804;51.176;4.452;2023-04-29T03:26:33;11.50;99.90
24686;DHT22;12804;51.176;4.452;2023-04-29T03:28:59;11.50;99.90
24686;DHT22;12804;51.176;4.452;2023-04-29T03:31:25;11.50;99.90
24686;DHT22;12804;51.176;4.452;2023-04-29T03:33:51;11.50;99.90
24686;DHT22;12804;51.176;4.452;2023-04-29T03:36:19;11.50;99.90
24686;DHT22;12804;51.176;4.452;2023-04-29T03:38:58;11.60;99.90
24686;DHT22;12804;51.176;4.452;2023-04-29T03:41:25;11.50;99.90
24686;DHT22;12804;51.176;4.452;2023-04-29T03:43:52;11.50;99.90
24686;DHT22;12804;51.176;4.452;2023-04-29T03:46:19;11.50;99.90
24686;DHT22;12804;51.176;4.452;2023-04-29T03:48:45;11.40;99.90
24686;DHT22;12804;51.176;4.452;2023-04-29T03:51:11;11.40;99.90
24686;DHT22;12804;51.176;4.452;2023-04-29T03:53:38;11.40;99.90
24686;DHT22;12804;51.176;4.452;2023-04-29T03:56:05;11.30;99.90
24686;DHT22;12804;51.176;4.452;2023-04-29T03:58:31;11.40;99.90
24686;DHT22;12804;51.176;4.452;2023-04-29T04:00:57;11.30;99.90
24686;DHT22;12804;51.176;4.452;2023-04-29T04:03:30;11.20;99.90
24686;DHT22;12804;51.176;4.452;2023-04-29T04:05:57;11.20;99.90
24686;DHT22;12804;51.176;4.452;2023-04-29T04:08:23;11.20;99.90
24686;DHT22;12804;51.176;4.452;2023-04-29T04:11:09;11.20;99.90
24686;DHT22;12804;51.176;4.452;2023-04-29T04:13:43;11.20;99.90
24686;DHT22;12804;51.176;4.452;2023-04-29T04:16:10;11.20;99.90
24686;DHT22;12804;51.176;4.452;2023-04-29T04:18:36;11.10;99.90
24686;DHT22;12804;51.176;4.452;2023-04-29T04:21:10;11.20;99.90
24686;DHT22;12804;51.176;4.452;2023-04-29T04:23:38;11.10;99.90
24686;DHT22;12804;51.176;4.452;2023-04-29T04:26:11;11.20;99.90
24686;DHT22;12804;51.176;4.452;2023-04-29T04:28:57;11.20;99.90
24686;DHT22;12804;51.176;4.452;2023-04-29T04:31:32;11.30;99.90
24686;DHT22;12804;51.176;4.452;2023-04-29T04:33:59;11.20;99.90
24686;DHT22;12804;51.176;4.452;2023-04-29T04:36:26;11.20;99.90
24686;DHT22;12804;51.176;4.452;2023-04-29T04:38:53;11.30;99.90
24686;DHT22;12804;51.176;4.452;2023-04-29T04:41:20;11.30;99.90
24686;DHT22;12804;51.176;4.452;2023-04-29T04:43:47;11.30;99.90
24686;DHT22;12804;51.176;4.452;2023-04-29T04:46:31;11.20;99.90
24686;DHT22;12804;51.176;4.452;2023-04-29T04:49:18;11.20;99.90
24686;DHT22;12804;51.176;4.452;2023-04-29T04:51:51;11.10;99.90
24686;DHT22;12804;51.176;4.452;2023-04-29T04:54:17;11.10;99.90
24686;DHT22;12804;51.176;4.452;2023-04-29T04:56:44;11.20;99.50
24686;DHT22;12804;51.176;4.452;2023-04-29T04:59:10;11.20;98.70
24686;DHT22;12804;51.176;4.452;2023-04-29T05:01:37;11.20;97.80
24686;DHT22;12804;51.176;4.452;2023-04-29T05:04:03;11.20;97.00
24686;DHT22;12804;51.176;4.452;2023-04-29T05:06:30;11.20;98.10
24686;DHT22;12804;51.176;4.452;2023-04-29T05:08:55;11.10;98.80
24686;DHT22;12804;51.176;4.452;2023-04-29T05:11:22;11.20;98.90
24686;DHT22;12804;51.176;4.452;2023-04-29T05:14:04;11.30;98.10
24686;DHT22;12804;51.176;4.452;2023-04-29T05:16:30;11.30;97.00
24686;DHT22;12804;51.176;4.452;2023-04-29T05:18:56;11.40;96.90
24686;DHT22;12804;51.176;4.452;2023-04-29T05:21:25;11.30;97.30
24686;DHT22;12804;51.176;4.452;2023-04-29T05:23:56;11.20;98.10
24686;DHT22;12804;51.176;4.452;2023-04-29T05:26:22;11.20;98.40
24686;DHT22;12804;51.176;4.452;2023-04-29T05:28:49;11.20;98.90
24686;DHT22;12804;51.176;4.452;2023-04-29T05:31:17;11.20;99.30
24686;DHT22;12804;51.176;4.452;2023-04-29T05:33:43;11.30;99.10
24686;DHT22;12804;51.176;4.452;2023-04-29T05:36:09;11.30;99.20
24686;DHT22;12804;51.176;4.452;2023-04-29T05:38:34;11.30;98.50
24686;DHT22;12804;51.176;4.452;2023-04-29T05:41:05;11.30;98.80
24686;DHT22;12804;51.176;4.452;2023-04-29T05:43:52;11.30;97.40
24686;DHT22;12804;51.176;4.452;2023-04-29T05:46:18;11.30;97.80
24686;DHT22;12804;51.176;4.452;2023-04-29T05:48:45;11.40;95.70
24686;DHT22;12804;51.176;4.452;2023-04-29T05:51:12;11.40;95.00
24686;DHT22;12804;51.176;4.452;2023-04-29T05:53:38;11.30;96.00
24686;DHT22;12804;51.176;4.452;2023-04-29T05:56:05;11.30;96.10
24686;DHT22;12804;51.176;4.452;2023-04-29T05:58:34;11.30;95.90
24686;DHT22;12804;51.176;4.452;2023-04-29T06:01:00;11.30;96.40
24686;DHT22;12804;51.176;4.452;2023-04-29T06:03:26;11.30;97.80
24686;DHT22;12804;51.176;4.452;2023-04-29T06:06:28;11.30;97.40
24686;DHT22;12804;51.176;4.452;2023-04-29T06:09:19;11.30;98.00
24686;DHT22;12804;51.176;4.452;2023-04-29T06:11:46;11.40;97.60
24686;DHT22;12804;51.176;4.452;2023-04-29T06:14:15;11.50;96.50
24686;DHT22;12804;51.176;4.452;2023-04-29T06:16:41;11.60;95.50
24686;DHT22;12804;51.176;4.452;2023-04-29T06:19:08;11.50;95.80
24686;DHT22;12804;51.176;4.452;2023-04-29T06:21:33;11.50;96.80
24686;DHT22;12804;51.176;4.452;2023-04-29T06:23:59;11.50;97.20
24686;DHT22;12804;51.176;4.452;2023-04-29T06:26:25;11.60;97.70
24686;DHT22;12804;51.176;4.452;2023-04-29T06:28:51;11.60;97.70
24686;DHT22;12804;51.176;4.452;2023-04-29T06:31:17;11.70;97.10
24686;DHT22;12804;51.176;4.452;2023-04-29T06:33:43;11.70;97.00
24686;DHT22;12804;51.176;4.452;2023-04-29T06:36:09;11.70;97.10
24686;DHT22;12804;51.176;4.452;2023-04-29T06:38:53;11.70;95.60
24686;DHT22;12804;51.176;4.452;2023-04-29T06:41:30;11.80;96.10
24686;DHT22;12804;51.176;4.452;2023-04-29T06:44:15;11.90;95.40
24686;DHT22;12804;51.176;4.452;2023-04-29T06:47:09;12.00;94.90
24686;DHT22;12804;51.176;4.452;2023-04-29T06:49:46;12.10;92.90
24686;DHT22;12804;51.176;4.452;2023-04-29T06:52:12;12.10;91.70
24686;DHT22;12804;51.176;4.452;2023-04-29T06:54:38;12.10;91.40
24686;DHT22;12804;51.176;4.452;2023-04-29T06:57:04;12.20;90.90
24686;DHT22;12804;51.176;4.452;2023-04-29T06:59:30;12.30;90.90
24686;DHT22;12804;51.176;4.452;2023-04-29T07:01:57;12.40;87.40
24686;DHT22;12804;51.176;4.452;2023-04-29T07:04:23;12.50;85.40
24686;DHT22;12804;51.176;4.452;2023-04-29T07:06:49;12.70;81.40
24686;DHT22;12804;51.176;4.452;2023-04-29T07:09:15;12.70;74.20
24686;DHT22;12804;51.176;4.452;2023-04-29T07:11:41;12.90;72.60
24686;DHT22;12804;51.176;4.452;2023-04-29T07:14:07;13.00;71.20
24686;DHT22;12804;51.176;4.452;2023-04-29T07:16:33;13.10;71.00
24686;DHT22;12804;51.176;4.452;2023-04-29T07:18:59;13.30;64.40
24686;DHT22;12804;51.176;4.452;2023-04-29T07:21:26;13.40;56.20
24686;DHT22;12804;51.176;4.452;2023-04-29T07:23:52;13.40;49.00
24686;DHT22;12804;51.176;4.452;2023-04-29T07:26:19;13.40;46.80
24686;DHT22;12804;51.176;4.452;2023-04-29T07:28:47;13.50;51.70
24686;DHT22;12804;51.176;4.452;2023-04-29T07:31:14;13.50;48.70
24686;DHT22;12804;51.176;4.452;2023-04-29T07:33:40;13.60;47.50
24686;DHT22;12804;51.176;4.452;2023-04-29T07:36:06;13.60;45.70
24686;DHT22;12804;51.176;4.452;2023-04-29T07:38:32;13.60;47.20
24686;DHT22;12804;51.176;4.452;2023-04-29T07:40:59;13.70;43.20
24686;DHT22;12804;51.176;4.452;2023-04-29T07:43:25;13.60;47.70
24686;DHT22;12804;51.176;4.452;2023-04-29T07:45:51;13.70;46.60
24686;DHT22;12804;51.176;4.452;2023-04-29T07:48:16;13.70;45.10
24686;DHT22;12804;51.176;4.452;2023-04-29T07:50:42;13.80;42.30
24686;DHT22;12804;51.176;4.452;2023-04-29T07:53:08;13.80;44.70
24686;DHT22;12804;51.176;4.452;2023-04-29T07:55:37;13.80;36.40
24686;DHT22;12804;51.176;4.452;2023-04-29T07:58:03;13.80;43.90
24686;DHT22;12804;51.176;4.452;2023-04-29T08:00:29;13.90;42.10
24686;DHT22;12804;51.176;4.452;2023-04-29T08:02:56;13.90;37.80
24686;DHT22;12804;51.176;4.452;2023-04-29T08:05:22;14.00;38.50
24686;DHT22;12804;51.176;4.452;2023-04-29T08:07:51;14.10;36.60
24686;DHT22;12804;51.176;4.452;2023-04-29T08:10:17;14.00;38.80
24686;DHT22;12804;51.176;4.452;2023-04-29T08:12:50;14.10;38.30
24686;DHT22;12804;51.176;4.452;2023-04-29T08:15:16;14.10;38.70
24686;DHT22;12804;51.176;4.452;2023-04-29T08:17:43;14.20;39.00
24686;DHT22;12804;51.176;4.452;2023-04-29T08:20:09;14.30;37.10
24686;DHT22;12804;51.176;4.452;2023-04-29T08:22:35;14.40;37.70
24686;DHT22;12804;51.176;4.452;2023-04-29T08:25:03;14.60;36.40
24686;DHT22;12804;51.176;4.452;2023-04-29T08:27:29;14.70;30.00
24686;DHT22;12804;51.176;4.452;2023-04-29T08:29:55;15.00;24.50
24686;DHT22;12804;51.176;4.452;2023-04-29T08:32:21;15.10;16.90
24686;DHT22;12804;51.176;4.452;2023-04-29T08:34:47;15.20;20.90
24686;DHT22;12804;51.176;4.452;2023-04-29T08:37:13;15.30;14.20
24686;DHT22;12804;51.176;4.452;2023-04-29T08:39:40;15.40;13.30
24686;DHT22;12804;51.176;4.452;2023-04-29T08:42:11;15.50;11.50
24686;DHT22;12804;51.176;4.452;2023-04-29T08:44:37;15.70;22.90
24686;DHT22;12804;51.176;4.452;2023-04-29T08:47:05;15.90;1.00
24686;DHT22;12804;51.176;4.452;2023-04-29T08:49:31;16.20;1.00
24686;DHT22;12804;51.176;4.452;2023-04-29T08:51:59;16.30;1.00
24686;DHT22;12804;51.176;4.452;2023-04-29T08:54:25;16.20;1.00
24686;DHT22;12804;51.176;4.452;2023-04-29T08:56:54;16.40;1.00
24686;DHT22;12804;51.176;4.452;2023-04-29T08:59:23;16.70;1.00
24686;DHT22;12804;51.176;4.452;2023-04-29T09:01:50;16.80;1.00
24686;DHT22;12804;51.176;4.452;2023-04-29T09:04:46;17.00;1.00
24686;DHT22;12804;51.176;4.452;2023-04-29T09:07:16;17.40;1.00
24686;DHT22;12804;51.176;4.452;2023-04-29T09:09:42;17.30;1.00
24686;DHT22;12804;51.176;4.452;2023-04-29T09:12:08;17.10;1.00
24686;DHT22;12804;51.176;4.452;2023-04-29T09:14:35;16.90;1.00
24686;DHT22;12804;51.176;4.452;2023-04-29T09:17:01;16.80;1.00
24686;DHT22;12804;51.176;4.452;2023-04-29T09:19:34;16.90;1.00
24686;DHT22;12804;51.176;4.452;2023-04-29T09:22:02;17.20;1.00
24686;DHT22;12804;51.176;4.452;2023-04-29T09:24:29;17.70;1.00
24686;DHT22;12804;51.176;4.452;2023-04-29T09:26:59;17.80;1.00
24686;DHT22;12804;51.176;4.452;2023-04-29T09:29:26;17.90;1.00
24686;DHT22;12804;51.176;4.452;2023-04-29T09:31:52;17.80;1.00
24686;DHT22;12804;51.176;4.452;2023-04-29T09:34:34;18.00;1.00
24686;DHT22;12804;51.176;4.452;2023-04-29T09:37:00;17.90;1.00
24686;DHT22;12804;51.176;4.452;2023-04-29T09:39:26;17.90;1.00
24686;DHT22;12804;51.176;4.452;2023-04-29T09:44:19;17.40;1.00
24686;DHT22;12804;51.176;4.452;2023-04-29T09:46:58;17.40;1.00
24686;DHT22;12804;51.176;4.452;2023-04-29T09:49:26;17.50;1.00
24686;DHT22;12804;51.176;4.452;2023-04-29T09:52:00;17.40;1.00
24686;DHT22;12804;51.176;4.452;2023-04-29T09:54:27;17.30;1.00
24686;DHT22;12804;51.176;4.452;2023-04-29T09:56:54;17.60;1.00
24686;DHT22;12804;51.176;4.452;2023-04-29T09:59:21;17.90;1.00
24686;DHT22;12804;51.176;4.452;2023-04-29T10:01:49;17.80;1.00
24686;DHT22;12804;51.176;4.452;2023-04-29T10:04:17;18.10;1.00
24686;DHT22;12804;51.176;4.452;2023-04-29T10:06:44;18.50;1.00
24686;DHT22;12804;51.176;4.452;2023-04-29T10:09:14;18.50;1.00
24686;DHT22;12804;51.176;4.452;2023-04-29T10:11:44;18.40;1.00
24686;DHT22;12804;51.176;4.452;2023-04-29T10:14:12;18.40;1.00
24686;DHT22;12804;51.176;4.452;2023-04-29T10:17:01;18.40;1.00
24686;DHT22;12804;51.176;4.452;2023-04-29T10:19:46;18.20;1.00
24686;DHT22;12804;51.176;4.452;2023-04-29T10:22:21;18.00;1.00
24686;DHT22;12804;51.176;4.452;2023-04-29T10:24:52;17.40;1.00
24686;DHT22;12804;51.176;4.452;2023-04-29T10:27:20;17.20;1.00
24686;DHT22;12804;51.176;4.452;2023-04-29T10:29:48;17.50;1.00
24686;DHT22;12804;51.176;4.452;2023-04-29T10:32:15;17.70;1.00
24686;DHT22;12804;51.176;4.452;2023-04-29T10:34:42;18.00;1.00
24686;DHT22;12804;51.176;4.452;2023-04-29T10:37:12;18.00;1.00
24686;DHT22;12804;51.176;4.452;2023-04-29T10:39:42;18.10;1.00
24686;DHT22;12804;51.176;4.452;2023-04-29T10:45:28;17.70;1.00
24686;DHT22;12804;51.176;4.452;2023-04-29T10:53:10;17.30;1.00
24686;DHT22;12804;51.176;4.452;2023-04-29T10:55:36;17.10;1.00
24686;DHT22;12804;51.176;4.452;2023-04-29T10:58:04;16.60;1.00
24686;DHT22;12804;51.176;4.452;2023-04-29T11:00:32;16.60;1.00
24686;DHT22;12804;51.176;4.452;2023-04-29T11:02:59;17.00;1.00
24686;DHT22;12804;51.176;4.452;2023-04-29T11:05:33;17.40;1.00
24686;DHT22;12804;51.176;4.452;2023-04-29T11:08:19;17.20;1.00
24686;DHT22;12804;51.176;4.452;2023-04-29T11:10:53;17.80;1.00
24686;DHT22;12804;51.176;4.452;2023-04-29T11:13:30;18.50;1.00
24686;DHT22;12804;51.176;4.452;2023-04-29T11:16:06;18.90;1.00
24686;DHT22;12804;51.176;4.452;2023-04-29T11:18:34;19.10;1.00
24686;DHT22;12804;51.176;4.452;2023-04-29T11:23:50;19.20;1.00
24686;DHT22;12804;51.176;4.452;2023-04-29T11:26:19;19.20;1.00
24686;DHT22;12804;51.176;4.452;2023-04-29T11:28:46;19.20;99.90
24686;DHT22;12804;51.176;4.452;2023-04-29T11:31:12;19.30;99.90
24686;DHT22;12804;51.176;4.452;2023-04-29T11:33:38;19.60;99.90
24686;DHT22;12804;51.176;4.452;2023-04-29T11:36:04;19.80;81.10
24686;DHT22;12804;51.176;4.452;2023-04-29T11:38:30;19.80;1.00
24686;DHT22;12804;51.176;4.452;2023-04-29T11:40:58;19.70;1.00
24686;DHT22;12804;51.176;4.452;2023-04-29T11:43:24;19.70;1.00
24686;DHT22;12804;51.176;4.452;2023-04-29T11:45:51;19.90;1.00
24686;DHT22;12804;51.176;4.452;2023-04-29T11:48:24;19.80;1.00
24686;DHT22;12804;51.176;4.452;2023-04-29T11:50:58;19.50;1.00
24686;DHT22;12804;51.176;4.452;2023-04-29T11:53:25;19.20;1.00
24686;DHT22;12804;51.176;4.452;2023-04-29T11:55:55;18.70;99.90
24686;DHT22;12804;51.176;4.452;2023-04-29T11:58:22;18.80;1.00
24686;DHT22;12804;51.176;4.452;2023-04-29T12:00:48;19.30;99.90
24686;DHT22;12804;51.176;4.452;2023-04-29T12:03:16;19.50;1.00
24686;DHT22;12804;51.176;4.452;2023-04-29T12:05:53;20.00;1.00
24686;DHT22;12804;51.176;4.452;2023-04-29T12:08:24;20.60;1.00
24686;DHT22;12804;51.176;4.452;2023-04-29T12:10:52;21.10;99.90
24686;DHT22;12804;51.176;4.452;2023-04-29T12:13:19;21.60;99.90
24686;DHT22;12804;51.176;4.452;2023-04-29T12:15:46;20.70;1.00
24686;DHT22;12804;51.176;4.452;2023-04-29T12:18:14;21.00;1.00
24686;DHT22;12804;51.176;4.452;2023-04-29T12:20:40;20.80;1.00
24686;DHT22;12804;51.176;4.452;2023-04-29T12:23:23;20.00;56.80
24686;DHT22;12804;51.176;4.452;2023-04-29T12:25:56;20.30;99.90
24686;DHT22;12804;51.176;4.452;2023-04-29T12:28:22;20.60;99.90
24686;DHT22;12804;51.176;4.452;2023-04-29T12:30:50;21.00;99.90
24686;DHT22;12804;51.176;4.452;2023-04-29T12:33:24;21.40;1.00
24686;DHT22;12804;51.176;4.452;2023-04-29T12:35:51;21.70;99.90
24686;DHT22;12804;51.176;4.452;2023-04-29T12:38:24;22.20;1.00
24686;DHT22;12804;51.176;4.452;2023-04-29T12:40:54;22.80;99.90
24686;DHT22;12804;51.176;4.452;2023-04-29T12:43:27;22.60;1.00
24686;DHT22;12804;51.176;4.452;2023-04-29T12:46:07;22.30;1.00
24686;DHT22;12804;51.176;4.452;2023-04-29T12:48:34;22.00;1.00
24686;DHT22;12804;51.176;4.452;2023-04-29T12:51:01;21.70;1.00
24686;DHT22;12804;51.176;4.452;2023-04-29T12:53:31;21.50;99.90
24686;DHT22;12804;51.176;4.452;2023-04-29T12:55:57;21.50;99.90
24686;DHT22;12804;51.176;4.452;2023-04-29T12:58:23;21.50;99.90
24686;DHT22;12804;51.176;4.452;2023-04-29T13:00:49;21.40;1.00
24686;DHT22;12804;51.176;4.452;2023-04-29T13:03:15;21.60;1.00
24686;DHT22;12804;51.176;4.452;2023-04-29T13:05:41;21.70;99.90
24686;DHT22;12804;51.176;4.452;2023-04-29T13:08:07;21.80;1.00
24686;DHT22;12804;51.176;4.452;2023-04-29T13:10:34;21.40;1.00
24686;DHT22;12804;51.176;4.452;2023-04-29T13:13:00;21.10;99.90
24686;DHT22;12804;51.176;4.452;2023-04-29T13:15:27;21.00;99.90
24686;DHT22;12804;51.176;4.452;2023-04-29T13:17:53;20.40;1.00
24686;DHT22;12804;51.176;4.452;2023-04-29T13:20:19;20.00;1.00
24686;DHT22;12804;51.176;4.452;2023-04-29T13:22:46;20.00;99.90
24686;DHT22;12804;51.176;4.452;2023-04-29T13:25:12;19.40;99.90
24686;DHT22;12804;51.176;4.452;2023-04-29T13:27:40;19.30;1.00
24686;DHT22;12804;51.176;4.452;2023-04-29T13:30:07;19.10;1.00
24686;DHT22;12804;51.176;4.452;2023-04-29T13:32:33;18.70;99.90
24686;DHT22;12804;51.176;4.452;2023-04-29T13:34:59;18.80;99.90
24686;DHT22;12804;51.176;4.452;2023-04-29T13:37:25;19.00;99.90
24686;DHT22;12804;51.176;4.452;2023-04-29T13:39:51;18.90;1.00
24686;DHT22;12804;51.176;4.452;2023-04-29T13:42:17;19.00;1.00
24686;DHT22;12804;51.176;4.452;2023-04-29T13:44:42;18.90;1.00
24686;DHT22;12804;51.176;4.452;2023-04-29T13:47:15;18.90;1.00
24686;DHT22;12804;51.176;4.452;2023-04-29T13:49:41;19.20;1.30
24686;DHT22;12804;51.176;4.452;2023-04-29T13:52:10;19.30;1.00
24686;DHT22;12804;51.176;4.452;2023-04-29T13:54:36;19.60;1.00
24686;DHT22;12804;51.176;4.452;2023-04-29T13:57:02;20.00;99.90
24686;DHT22;12804;51.176;4.452;2023-04-29T13:59:33;20.20;99.90
24686;DHT22;12804;51.176;4.452;2023-04-29T14:02:00;20.30;1.00
24686;DHT22;12804;51.176;4.452;2023-04-29T14:04:28;20.30;1.00
24686;DHT22;12804;51.176;4.452;2023-04-29T14:06:55;20.20;1.00
24686;DHT22;12804;51.176;4.452;2023-04-29T14:09:21;20.00;1.00
24686;DHT22;12804;51.176;4.452;2023-04-29T14:11:47;19.70;1.00
24686;DHT22;12804;51.176;4.452;2023-04-29T14:14:14;19.70;1.00
24686;DHT22;12804;51.176;4.452;2023-04-29T14:16:40;19.50;1.00
24686;DHT22;12804;51.176;4.452;2023-04-29T14:19:06;19.40;1.00
24686;DHT22;12804;51.176;4.452;2023-04-29T14:21:32;19.30;1.00
24686;DHT22;12804;51.176;4.452;2023-04-29T14:24:01;19.00;1.00
24686;DHT22;12804;51.176;4.452;2023-04-29T14:26:28;18.80;12.40
24686;DHT22;12804;51.176;4.452;2023-04-29T14:28:55;18.40;1.00
24686;DHT22;12804;51.176;4.452;2023-04-29T14:31:24;18.40;99.90
24686;DHT22;12804;51.176;4.452;2023-04-29T14:33:52;18.40;99.90
24686;DHT22;12804;51.176;4.452;2023-04-29T14:36:19;18.50;99.90
24686;DHT22;12804;51.176;4.452;2023-04-29T14:38:48;18.50;1.00
24686;DHT22;12804;51.176;4.452;2023-04-29T14:41:14;18.50;1.00
24686;DHT22;12804;51.176;4.452;2023-04-29T14:43:40;18.80;1.00
24686;DHT22;12804;51.176;4.452;2023-04-29T14:46:06;19.00;1.00
24686;DHT22;12804;51.176;4.452;2023-04-29T14:48:33;19.20;29.40
24686;DHT22;12804;51.176;4.452;2023-04-29T14:50:58;19.50;99.90
24686;DHT22;12804;51.176;4.452;2023-04-29T14:53:24;19.90;99.90
24686;DHT22;12804;51.176;4.452;2023-04-29T14:55:51;20.30;99.90
24686;DHT22;12804;51.176;4.452;2023-04-29T14:58:17;20.60;1.00
24686;DHT22;12804;51.176;4.452;2023-04-29T15:00:43;20.60;99.90
24686;DHT22;12804;51.176;4.452;2023-04-29T15:03:08;20.80;74.80
24686;DHT22;12804;51.176;4.452;2023-04-29T15:05:35;20.70;1.00
24686;DHT22;12804;51.176;4.452;2023-04-29T15:08:00;20.40;1.00
24686;DHT22;12804;51.176;4.452;2023-04-29T15:10:27;20.20;1.00
24686;DHT22;12804;51.176;4.452;2023-04-29T15:12:53;20.00;99.90
24686;DHT22;12804;51.176;4.452;2023-04-29T15:15:20;19.70;1.00
24686;DHT22;12804;51.176;4.452;2023-04-29T15:17:46;19.50;1.00
24686;DHT22;12804;51.176;4.452;2023-04-29T15:20:12;19.80;99.90
24686;DHT22;12804;51.176;4.452;2023-04-29T15:22:38;20.20;1.00
24686;DHT22;12804;51.176;4.452;2023-04-29T15:25:05;20.70;58.90
24686;DHT22;12804;51.176;4.452;2023-04-29T15:27:32;20.70;99.90
24686;DHT22;12804;51.176;4.452;2023-04-29T15:29:59;21.30;99.90
24686;DHT22;12804;51.176;4.452;2023-04-29T15:32:25;21.40;1.00
24686;DHT22;12804;51.176;4.452;2023-04-29T15:35:00;21.50;99.90
24686;DHT22;12804;51.176;4.452;2023-04-29T15:37:26;21.30;99.90
24686;DHT22;12804;51.176;4.452;2023-04-29T15:39:57;21.20;1.00
24686;DHT22;12804;51.176;4.452;2023-04-29T15:42:23;21.00;99.90
24686;DHT22;12804;51.176;4.452;2023-04-29T15:44:49;20.80;1.00
24686;DHT22;12804;51.176;4.452;2023-04-29T15:47:15;20.90;1.00
24686;DHT22;12804;51.176;4.452;2023-04-29T15:49:41;21.30;1.00
24686;DHT22;12804;51.176;4.452;2023-04-29T15:52:08;21.60;99.90
24686;DHT22;12804;51.176;4.452;2023-04-29T15:54:34;21.30;1.00
24686;DHT22;12804;51.176;4.452;2023-04-29T15:57:00;20.40;99.90
24686;DHT22;12804;51.176;4.452;2023-04-29T15:59:28;20.70;88.30
24686;DHT22;12804;51.176;4.452;2023-04-29T16:01:54;20.90;99.90